Time;durP1;ratioP1;P1;durP2;ratioP2;P2;SDS_P1;SDS_P2;PMS_P1;PMS_P2;Temp;Humidity;BMP_temperature;BMP_pressure;BME280_temperature;BME280_humidity;BME280_pressure;Samples;Min_cycle;Max_cycle;Signal;HPM_P1;HPM_P2
2023/09/13 00:02:40;;;;;;;10.85;6.28;;;;;;;20.99;64.66;100637.63;15737734;28;20044;-48
2023/09/13 00:10:13;;;;;;;9.13;6.45;;;;;;;20.98;65.13;100635.16;15718746;28;20141;-48
2023/09/13 00:17:49;;;;;;;10.70;6.63;;;;;;;21.36;63.52;100636.31;15736330;28;20075;-48
2023/09/13 00:25:23;;;;;;;13.80;6.30;;;;;;;21.21;64.30;100631.72;15705442;28;20114;-48
2023/09/13 00:32:57;;;;;;;8.32;6.72;;;;;;;21.73;62.61;100632.16;15681363;28;20052;-47
2023/09/13 00:40:30;;;;;;;8.70;6.65;;;;;;;21.54;63.10;100632.06;15675013;28;20121;-48
2023/09/13 00:48:05;;;;;;;12.27;7.32;;;;;;;21.51;63.22;100638.09;15665571;28;20067;-50
2023/09/13 00:55:39;;;;;;;9.23;6.72;;;;;;;21.86;62.31;100632.31;15716163;28;20036;-50
2023/09/13 01:03:16;;;;;;;8.88;6.65;;;;;;;22.07;61.59;100643.88;15722869;28;20116;-47
2023/09/13 01:10:49;;;;;;;10.52;6.88;;;;;;;22.09;61.35;100649.03;15678623;28;20051;-48
2023/09/13 01:18:29;;;;;;;10.70;7.32;;;;;;;21.49;63.13;100608.34;15717549;28;20045;-46
2023/09/13 01:26:20;;;;;;;13.70;7.43;;;;;;;21.44;63.54;100586.53;15683708;28;20048;-48
2023/09/13 01:33:54;;;;;;;10.30;6.80;;;;;;;21.78;62.38;100589.25;15705795;28;20173;-48
2023/09/13 01:41:33;;;;;;;19.60;7.43;;;;;;;20.42;67.15;100788.88;15739512;28;20051;-51
2023/09/13 01:49:10;;;;;;;18.52;7.25;;;;;;;20.57;67.35;100851.66;15721450;28;20045;-48
2023/09/13 01:56:44;;;;;;;15.75;9.48;;;;;;;19.90;74.73;100791.91;15715624;28;20029;-47
2023/09/13 02:04:18;;;;;;;17.90;10.02;;;;;;;21.06;70.76;100755.47;15690360;28;20048;-46
2023/09/13 02:11:54;;;;;;;16.15;10.52;;;;;;;21.01;72.57;100754.69;15676090;28;20471;-46
2023/09/13 02:19:37;;;;;;;16.48;11.38;;;;;;;20.84;71.84;100734.03;15659154;28;20116;-48
2023/09/13 02:27:09;;;;;;;18.38;11.60;;;;;;;20.05;75.79;100669.28;15689886;28;20095;-44
2023/09/13 02:34:45;;;;;;;20.00;12.85;;;;;;;20.03;76.13;100639.59;15671436;28;20048;-48
2023/09/13 02:42:18;;;;;;;17.95;11.73;;;;;;;19.71;77.41;100581.91;15682211;28;20126;-43
2023/09/13 02:49:52;;;;;;;15.80;11.43;;;;;;;19.36;79.53;100538.09;15669531;28;20110;-49
2023/09/13 02:57:27;;;;;;;16.55;10.40;;;;;;;19.15;80.48;100514.69;15681668;28;20060;-45
2023/09/13 03:05:05;;;;;;;19.73;10.57;;;;;;;19.43;79.04;100515.22;15681205;28;20102;-46
2023/09/13 03:12:40;;;;;;;17.05;10.10;;;;;;;19.70;78.07;100532.06;15687857;28;20052;-47
2023/09/13 03:20:19;;;;;;;18.95;11.23;;;;;;;19.88;77.21;100538.84;15681912;28;20033;-44
2023/09/13 03:28:01;;;;;;;18.95;11.70;;;;;;;19.77;77.78;100535.34;15684015;28;20441;-45
2023/09/13 03:35:36;;;;;;;21.20;13.35;;;;;;;19.88;77.26;100531.47;15704847;28;20033;-51
2023/09/13 03:43:16;;;;;;;20.90;14.73;;;;;;;19.22;79.51;100509.00;15688949;28;20119;-44
2023/09/13 03:50:51;;;;;;;24.15;16.33;;;;;;;19.19;79.47;100502.19;15664881;28;20364;-49
2023/09/13 03:58:24;;;;;;;20.90;15.82;;;;;;;19.05;78.83;100499.19;15719835;28;20397;-45
2023/09/13 04:06:06;;;;;;;19.40;16.70;;;;;;;19.81;75.46;100513.78;15715150;28;20049;-47
2023/09/13 04:13:40;;;;;;;23.40;18.02;;;;;;;19.46;76.39;100515.50;15695348;28;20119;-46
2023/09/13 04:21:15;;;;;;;18.85;16.25;;;;;;;19.96;74.38;100521.09;15724301;28;20083;-49
2023/09/13 04:28:48;;;;;;;23.10;17.73;;;;;;;19.77;74.63;100524.44;15662941;28;20528;-50
2023/09/13 04:36:23;;;;;;;27.42;17.25;;;;;;;19.80;74.33;100536.69;15663500;28;20497;-44
2023/09/13 04:43:57;;;;;;;25.58;17.88;;;;;;;19.13;76.78;100552.25;15662701;28;20037;-44
2023/09/13 04:51:31;;;;;;;23.67;17.30;;;;;;;19.11;77.33;100565.28;15680842;28;20124;-45
2023/09/13 04:59:05;;;;;;;22.27;17.52;;;;;;;18.88;77.14;100577.50;15662467;28;20040;-47
2023/09/13 05:06:40;;;;;;;29.67;21.83;;;;;;;18.98;77.17;100596.59;15661242;28;20041;-46
2023/09/13 05:14:14;;;;;;;26.33;18.75;;;;;;;18.39;79.40;100607.78;15703688;28;20044;-45
2023/09/13 05:21:48;;;;;;;24.33;19.15;;;;;;;18.78;77.95;100600.06;15739984;28;20476;-44
2023/09/13 05:29:22;;;;;;;28.20;19.02;;;;;;;18.72;78.72;100586.72;15739350;28;20505;-44
2023/09/13 05:36:58;;;;;;;28.83;19.40;;;;;;;18.62;78.78;100584.78;15739393;28;20044;-47
2023/09/13 05:44:34;;;;;;;27.30;18.52;;;;;;;18.67;79.00;100582.06;15739238;28;20539;-51
2023/09/13 05:52:08;;;;;;;26.60;17.38;;;;;;;19.20;78.23;100577.28;15738553;28;20152;-47
2023/09/13 05:59:41;;;;;;;23.88;16.13;;;;;;;19.21;77.22;100580.81;15731055;28;20497;-46
2023/09/13 06:07:16;;;;;;;22.52;16.70;;;;;;;19.41;76.41;100577.28;15738460;28;20071;-53
2023/09/13 06:14:51;;;;;;;25.42;14.90;;;;;;;19.55;76.28;100589.25;15714074;28;20036;-50
2023/09/13 06:22:26;;;;;;;18.67;14.88;;;;;;;19.78;77.02;100594.16;15688691;28;20114;-50
2023/09/13 06:29:59;;;;;;;22.63;13.45;;;;;;;20.09;76.21;100597.59;15687629;28;20064;-48
2023/09/13 06:37:33;;;;;;;14.95;12.20;;;;;;;20.40;75.74;100600.25;15686985;28;20513;-47
2023/09/13 06:45:08;;;;;;;15.80;11.55;;;;;;;19.55;79.13;100603.69;15687439;28;20456;-47
2023/09/13 06:52:42;;;;;;;14.27;10.73;;;;;;;19.27;79.69;100612.41;15740864;28;20501;-47
2023/09/13 07:00:16;;;;;;;13.65;9.63;;;;;;;19.65;78.17;100618.41;15748379;28;20044;-46
2023/09/13 07:07:50;;;;;;;11.00;9.27;;;;;;;19.09;79.55;100621.91;15748203;28;20037;-49
2023/09/13 07:15:24;;;;;;;11.82;9.20;;;;;;;19.21;79.83;100627.91;15712492;28;20056;-48
2023/09/13 07:22:59;;;;;;;12.50;8.00;;;;;;;19.23;78.51;100638.50;15686052;28;20041;-51
2023/09/13 07:30:32;;;;;;;10.52;8.13;;;;;;;18.99;79.67;100652.63;15685179;28;20494;-46
2023/09/13 07:38:07;;;;;;;10.30;8.68;;;;;;;19.45;78.91;100655.41;15684361;28;20117;-47
2023/09/13 07:45:40;;;;;;;12.23;7.97;;;;;;;19.71;78.17;100664.41;15683395;28;20037;-46
2023/09/13 07:53:14;;;;;;;10.02;7.22;;;;;;;20.23;75.69;100663.25;15683249;28;20413;-44
2023/09/13 08:00:50;;;;;;;9.52;7.32;;;;;;;20.31;74.27;100672.78;15683050;28;20064;-49
2023/09/13 08:08:25;;;;;;;10.60;6.40;;;;;;;19.07;75.26;100692.06;15682554;28;20128;-44
2023/09/13 08:15:59;;;;;;;10.80;6.50;;;;;;;19.77;74.46;100687.84;15721771;28;20119;-48
2023/09/13 08:23:35;;;;;;;8.13;5.90;;;;;;;20.67;72.61;100691.81;15743828;28;20485;-45
2023/09/13 08:31:10;;;;;;;6.35;4.97;;;;;;;20.84;69.55;100706.75;15743561;28;20040;-48
2023/09/13 08:38:44;;;;;;;3.38;3.08;;;;;;;21.26;67.37;100708.13;15742617;28;20064;-52
2023/09/13 08:46:19;;;;;;;4.18;3.30;;;;;;;20.94;68.79;100719.50;15741626;28;20044;-48
2023/09/13 08:53:53;;;;;;;5.88;2.83;;;;;;;20.41;70.29;100729.19;15723267;28;20048;-44
2023/09/13 09:01:29;;;;;;;4.10;2.75;;;;;;;19.90;72.04;100727.34;15740627;28;20040;-46
2023/09/13 09:09:05;;;;;;;3.53;2.45;;;;;;;20.53;70.44;100737.94;15739875;28;20036;-46
2023/09/13 09:16:40;;;;;;;3.00;2.38;;;;;;;19.73;73.12;100748.59;15695014;28;20123;-45
2023/09/13 09:24:15;;;;;;;5.90;2.63;;;;;;;20.10;71.86;100764.69;15678517;28;20049;-45
2023/09/13 09:31:52;;;;;;;3.05;2.33;;;;;;;19.72;72.32;100769.53;15660044;28;20429;-46
2023/09/13 09:39:29;;;;;;;3.22;2.58;;;;;;;19.86;72.76;100762.50;15678097;28;20107;-47
2023/09/13 09:47:02;;;;;;;3.08;2.60;;;;;;;20.63;71.16;100767.91;15676600;28;20037;-45
2023/09/13 09:54:37;;;;;;;4.40;2.88;;;;;;;19.88;72.76;100784.00;15659969;28;20414;-49
2023/09/13 10:02:11;;;;;;;5.03;3.25;;;;;;;20.34;72.05;100773.09;15677503;28;20045;-47
2023/09/13 10:09:47;;;;;;;4.45;3.05;;;;;;;21.10;69.75;100781.09;15676364;28;20037;-45
2023/09/13 10:17:22;;;;;;;2.72;2.33;;;;;;;21.62;67.01;100798.88;15726931;28;20045;-44
2023/09/13 10:25:03;;;;;;;2.65;2.05;;;;;;;21.96;67.38;100802.75;15681866;28;20037;-44
2023/09/13 10:32:45;;;;;;;3.15;1.80;;;;;;;20.96;68.89;100812.00;15676684;28;20041;-47
2023/09/13 10:40:23;;;;;;;4.07;2.10;;;;;;;20.97;69.74;100819.09;15675373;28;20052;-46
2023/09/13 10:48:01;;;;;;;2.65;2.00;;;;;;;20.47;70.99;100839.88;15676071;28;20043;-46
2023/09/13 10:55:38;;;;;;;2.28;1.80;;;;;;;20.82;68.84;100845.31;15675373;28;20044;-49
2023/09/13 11:03:12;;;;;;;2.35;1.70;;;;;;;20.44;70.87;100854.88;15683101;28;20079;-49
2023/09/13 11:10:46;;;;;;;3.20;2.00;;;;;;;20.36;71.30;100861.69;15695241;28;20048;-53
2023/09/13 11:18:19;;;;;;;3.25;2.50;;;;;;;20.57;70.25;100867.19;15696951;28;20049;-51
2023/09/13 11:25:55;;;;;;;3.92;2.30;;;;;;;20.47;71.04;100878.03;15685002;28;20049;-46
2023/09/13 11:33:30;;;;;;;4.30;2.75;;;;;;;20.98;70.47;100881.56;15685029;28;20164;-52
2023/09/13 11:41:05;;;;;;;3.45;2.40;;;;;;;22.24;66.37;100885.97;15704621;28;20047;-45
2023/09/13 11:48:43;;;;;;;2.75;2.30;;;;;;;22.58;64.22;100888.72;15684037;28;20041;-45
2023/09/13 11:56:37;;;;;;;4.28;2.40;;;;;;;22.54;63.54;100893.13;15683524;28;20041;-46
2023/09/13 12:04:10;;;;;;;3.92;2.35;;;;;;;23.34;61.91;100903.59;15684775;28;20468;-56
2023/09/13 12:11:49;;;;;;;3.30;2.10;;;;;;;23.51;61.82;100905.88;15693220;28;20033;-51
2023/09/13 12:19:48;;;;;;;4.47;2.30;;;;;;;23.68;61.90;100912.50;15726726;28;20032;-47
2023/09/13 12:27:23;;;;;;;2.88;2.13;;;;;;;23.36;61.34;100917.78;15721652;28;20049;-48
2023/09/13 12:34:56;;;;;;;2.80;2.35;;;;;;;22.78;63.22;100907.69;15730214;28;20452;-47
2023/09/13 12:42:31;;;;;;;3.15;2.40;;;;;;;22.81;62.91;100918.06;15681214;28;20408;-45
2023/09/13 12:50:04;;;;;;;2.58;2.15;;;;;;;23.35;61.67;100919.72;15680015;28;20075;-53
2023/09/13 12:57:38;;;;;;;3.03;2.50;;;;;;;23.23;62.40;100937.69;15687079;28;20064;-47
2023/09/13 13:05:16;;;;;;;2.70;2.20;;;;;;;24.16;58.58;100933.53;15694482;28;20049;-45
2023/09/13 13:12:56;;;;;;;2.20;2.00;;;;;;;23.74;59.70;100928.91;15686312;28;20044;-46
2023/09/13 13:20:31;;;;;;;2.20;2.00;;;;;;;23.27;60.65;100942.28;15694508;28;20071;-45
2023/09/13 13:28:07;;;;;;;2.40;2.13;;;;;;;23.33;59.67;100938.38;15680058;28;20037;-52
2023/09/13 13:35:40;;;;;;;2.45;2.10;;;;;;;23.81;57.89;100941.13;15679555;28;20044;-45
2023/09/13 13:43:18;;;;;;;2.90;2.00;;;;;;;23.56;59.25;100924.97;15678708;28;20163;-44
2023/09/13 13:50:51;;;;;;;2.53;1.70;;;;;;;24.96;56.41;100909.75;15678030;28;20494;-47
2023/09/13 13:58:25;;;;;;;2.20;1.73;;;;;;;24.23;57.14;100903.78;15676956;28;20041;-46
2023/09/13 14:05:59;;;;;;;2.72;2.20;;;;;;;24.09;56.33;100908.38;15676928;28;20401;-46
2023/09/13 14:13:33;;;;;;;2.35;1.80;;;;;;;24.73;55.05;100901.38;15696169;28;20060;-52
2023/09/13 14:21:09;;;;;;;2.22;1.70;;;;;;;24.31;56.35;100908.59;15737883;28;20083;-46
2023/09/13 14:28:44;;;;;;;4.55;1.80;;;;;;;23.71;57.93;100907.56;15763118;22;20032;-52
2023/09/13 14:36:17;;;;;;;2.15;1.60;;;;;;;23.64;57.98;100910.63;15869867;28;20062;-51
2023/09/13 14:43:52;;;;;;;2.15;1.50;;;;;;;23.45;58.06;100932.47;15876966;28;20462;-48
2023/09/13 14:51:25;;;;;;;3.00;1.90;;;;;;;23.77;58.23;100942.00;15876816;28;20039;-53
2023/09/13 14:59:00;;;;;;;2.35;2.13;;;;;;;22.35;64.38;100944.97;15876886;28;20518;-48
2023/09/13 15:06:37;;;;;;;2.70;2.15;;;;;;;21.98;67.31;100954.47;15884938;28;20044;-52
2023/09/13 15:14:12;;;;;;;3.85;2.40;;;;;;;21.64;68.37;100959.81;15870407;28;20086;-50
2023/09/13 15:21:46;;;;;;;2.47;2.10;;;;;;;21.84;68.98;100978.03;15841446;28;20516;-50
2023/09/13 15:29:20;;;;;;;3.17;2.40;;;;;;;21.28;71.23;100986.34;15873392;28;20100;-51
2023/09/13 15:36:53;;;;;;;3.20;2.50;;;;;;;21.69;70.03;100987.09;15873037;28;20460;-47
2023/09/13 15:44:28;;;;;;;3.03;2.50;;;;;;;21.72;69.31;100986.53;15871653;28;20063;-52
2023/09/13 15:52:05;;;;;;;3.45;2.55;;;;;;;21.56;69.66;100999.44;15870674;28;20043;-52
2023/09/13 15:59:39;;;;;;;3.63;2.83;;;;;;;21.48;70.63;101005.44;15871763;28;20377;-48
2023/09/13 16:07:14;;;;;;;3.85;2.83;;;;;;;21.74;69.71;101011.69;15840813;28;20036;-51
2023/09/13 16:14:49;;;;;;;3.00;2.58;;;;;;;21.34;70.21;101018.03;15862450;28;20050;-49
2023/09/13 16:22:23;;;;;;;3.22;2.15;;;;;;;21.53;68.00;101023.75;15862098;28;20142;-47
2023/09/13 16:29:57;;;;;;;3.25;1.90;;;;;;;21.38;67.02;101024.59;15846563;28;20035;-53
2023/09/13 16:37:31;;;;;;;2.50;2.20;;;;;;;21.29;68.54;101034.41;15861159;28;20593;-49
2023/09/13 16:45:06;;;;;;;2.35;2.03;;;;;;;20.81;69.66;101037.41;15857972;28;20122;-49
2023/09/13 16:52:39;;;;;;;4.88;2.78;;;;;;;20.73;69.92;101045.31;15839479;28;20043;-51
2023/09/13 17:00:14;;;;;;;3.17;2.47;;;;;;;20.94;69.87;101049.69;15834440;28;20039;-51
2023/09/13 17:07:48;;;;;;;3.30;3.00;;;;;;;20.82;70.77;101058.13;15863053;28;20122;-49
2023/09/13 17:15:23;;;;;;;4.22;3.55;;;;;;;20.63;71.83;101066.00;15842458;28;20499;-52
2023/09/13 17:22:56;;;;;;;5.43;4.20;;;;;;;20.45;73.53;101074.66;15869897;28;20047;-49
2023/09/13 17:30:33;;;;;;;5.70;5.03;;;;;;;20.13;74.06;101072.06;15841311;28;20035;-54
2023/09/13 17:38:06;;;;;;;6.28;4.90;;;;;;;20.09;74.71;101096.31;15847872;28;20051;-51
2023/09/13 17:45:40;;;;;;;7.93;5.28;;;;;;;20.01;73.84;101099.56;15869347;28;20050;-47
2023/09/13 17:53:15;;;;;;;8.43;6.13;;;;;;;19.71;73.42;101113.78;15859578;28;20032;-49
2023/09/13 18:00:49;;;;;;;8.73;7.18;;;;;;;19.20;74.66;101137.03;15843759;28;20089;-46
2023/09/13 18:08:22;;;;;;;6.03;5.43;;;;;;;19.33;73.41;101134.72;15857569;28;20412;-51
2023/09/13 18:15:58;;;;;;;6.90;5.10;;;;;;;19.51;72.85;101152.56;15856393;28;20052;-48
2023/09/13 18:23:31;;;;;;;5.15;4.65;;;;;;;19.23;73.57;101180.06;15865273;28;20063;-51
2023/09/13 18:31:07;;;;;;;4.38;3.63;;;;;;;18.95;73.46;101192.84;15857339;28;20424;-48
2023/09/13 18:38:40;;;;;;;4.35;2.90;;;;;;;18.36;75.51;101206.19;15851789;28;20085;-48
2023/09/13 18:46:15;;;;;;;5.30;2.60;;;;;;;18.42;74.92;101202.50;15862325;28;20047;-55
2023/09/13 18:53:48;;;;;;;3.20;2.22;;;;;;;18.38;75.75;101225.81;15847643;28;20035;-48
2023/09/13 19:01:22;;;;;;;4.13;1.45;;;;;;;17.38;77.42;101232.00;15865867;28;20104;-48
2023/09/13 19:08:55;;;;;;;2.97;1.35;;;;;;;17.50;76.29;101236.31;15847372;28;20067;-49
2023/09/13 19:16:31;;;;;;;2.13;1.30;;;;;;;17.41;76.35;101251.34;15841081;28;20461;-50
2023/09/13 19:24:04;;;;;;;2.53;1.25;;;;;;;17.19;76.65;101270.19;15842038;28;20126;-48
2023/09/13 19:31:39;;;;;;;2.97;1.70;;;;;;;17.26;76.02;101283.63;15869520;28;20061;-49
2023/09/13 19:39:13;;;;;;;7.20;2.13;;;;;;;17.49;74.80;101304.44;15866691;28;20062;-49
2023/09/13 19:46:50;;;;;;;4.25;2.85;;;;;;;17.38;74.37;101329.69;15858086;28;20040;-49
2023/09/13 19:54:26;;;;;;;4.68;2.13;;;;;;;16.92;74.80;101342.28;15872802;28;20043;-48
2023/09/13 20:02:01;;;;;;;7.22;2.25;;;;;;;16.68;73.91;101361.25;15868283;28;20040;-53
2023/09/13 20:09:36;;;;;;;5.18;2.38;;;;;;;16.86;73.42;101373.91;15871881;28;20093;-48
2023/09/13 20:17:10;;;;;;;6.25;2.30;;;;;;;16.75;72.18;101389.13;15810363;28;20463;-50
2023/09/13 20:24:44;;;;;;;4.95;2.25;;;;;;;16.97;71.01;101400.22;15850161;28;20044;-48
2023/09/13 20:32:18;;;;;;;9.15;2.63;;;;;;;16.82;71.98;101407.97;15805396;22;20140;-49
2023/09/13 20:39:52;;;;;;;6.07;2.65;;;;;;;16.94;70.83;101407.97;15805855;28;20511;-47
2023/09/13 20:47:27;;;;;;;8.93;2.30;;;;;;;16.86;72.38;101419.19;15805316;28;20044;-46
2023/09/13 20:55:00;;;;;;;5.00;2.47;;;;;;;16.24;72.14;101428.47;15805462;28;20043;-44
2023/09/13 21:02:35;;;;;;;4.80;2.45;;;;;;;16.50;72.32;101432.63;15804970;28;20055;-46
2023/09/13 21:10:09;;;;;;;6.40;2.33;;;;;;;15.99;72.14;101439.47;15804646;28;20040;-46
2023/09/13 21:17:43;;;;;;;5.75;2.47;;;;;;;15.15;73.52;101449.13;15795991;28;20063;-46
2023/09/13 21:25:17;;;;;;;6.15;2.50;;;;;;;15.49;72.89;101457.75;15800562;28;20626;-46
2023/09/13 21:32:52;;;;;;;5.00;2.45;;;;;;;15.73;71.52;101459.56;15844308;28;20553;-45
2023/09/13 21:40:25;;;;;;;4.88;2.35;;;;;;;15.93;68.06;101458.47;15847757;28;20036;-46
2023/09/13 21:47:59;;;;;;;3.55;1.83;;;;;;;15.59;67.36;101463.44;15865549;28;20046;-46
2023/09/13 21:55:32;;;;;;;4.75;2.17;;;;;;;16.02;66.47;101467.94;15864608;28;20043;-47
2023/09/13 22:03:07;;;;;;;4.10;1.75;;;;;;;15.96;65.90;101479.69;15864970;28;20044;-46
2023/09/13 22:10:42;;;;;;;6.55;2.10;;;;;;;16.27;64.69;101474.06;15864085;28;20067;-47
2023/09/13 22:18:17;;;;;;;4.20;1.90;;;;;;;16.07;65.56;101473.50;15806868;28;20054;-47
2023/09/13 22:25:50;;;;;;;4.47;1.90;;;;;;;15.75;65.50;101495.34;15801105;28;20070;-46
2023/09/13 22:33:25;;;;;;;3.85;2.00;;;;;;;15.69;66.49;101496.25;15846701;28;20046;-47
2023/09/13 22:40:59;;;;;;;5.05;1.75;;;;;;;15.50;66.74;101498.09;15863729;28;20044;-49
2023/09/13 22:48:34;;;;;;;3.67;1.60;;;;;;;15.70;66.85;101511.44;15863093;28;20048;-46
2023/09/13 22:56:07;;;;;;;4.07;1.35;;;;;;;15.98;66.20;101504.66;15867144;28;20046;-45
2023/09/13 23:03:41;;;;;;;;;;;;;;;15.78;66.61;101518.44;15875705;28;20043;-46
2023/09/13 23:11:15;;;;;;;5.22;1.90;;;;;;;15.79;67.09;101523.59;15874084;28;20391;-46
2023/09/13 23:18:49;;;;;;;4.60;1.90;;;;;;;15.63;67.89;101521.47;15838045;28;20063;-46
2023/09/13 23:26:23;;;;;;;4.22;1.60;;;;;;;15.92;67.89;101530.75;15873904;28;20050;-45
2023/09/13 23:33:58;;;;;;;4.03;2.05;;;;;;;15.35;69.70;101524.69;15855655;28;20187;-48
2023/09/13 23:41:31;;;;;;;4.47;2.08;;;;;;;15.73;69.34;101524.53;15872859;28;20286;-46
2023/09/13 23:49:06;;;;;;;;;;;;;;;15.78;69.84;101529.25;15873874;28;20514;-46
2023/09/13 23:56:39;;;;;;;4.78;2.35;;;;;;;15.77;69.16;101528.44;15871525;28;20025;-45
